createdAt,value
2018-12-29T00:00:50.202Z,21.20
2018-12-29T00:03:17.561Z,20.63
2018-12-29T00:05:44.822Z,21.20
2018-12-29T00:08:12.126Z,20.23
2018-12-29T00:10:39.651Z,19.33
2018-12-29T00:13:06.965Z,17.13
2018-12-29T00:15:34.262Z,19.33
2018-12-29T00:18:01.794Z,20.00
2018-12-29T00:20:29.174Z,20.10
2018-12-29T00:22:56.729Z,19.70
2018-12-29T00:25:24.263Z,20.43
2018-12-29T00:27:51.630Z,19.63
2018-12-29T00:30:18.896Z,19.83
2018-12-29T00:32:46.157Z,19.50
2018-12-29T00:35:13.597Z,18.27
2018-12-29T00:37:40.860Z,18.60
2018-12-29T00:40:08.145Z,17.83
2018-12-29T00:42:35.513Z,19.50
2018-12-29T00:45:03.130Z,18.03
2018-12-29T00:47:30.447Z,19.77
2018-12-29T00:49:57.817Z,18.80
2018-12-29T00:52:25.079Z,18.47
2018-12-29T00:54:52.625Z,19.27
2018-12-29T00:57:20.200Z,16.27
2018-12-29T00:59:47.711Z,18.43
2018-12-29T01:02:15.059Z,20.67
2018-12-29T01:04:42.356Z,18.03
2018-12-29T01:07:09.710Z,19.13
2018-12-29T01:09:36.952Z,20.60
2018-12-29T01:12:04.216Z,19.33
2018-12-29T01:14:31.483Z,17.30
2018-12-29T01:16:58.869Z,19.43
2018-12-29T01:19:26.114Z,17.57
2018-12-29T01:21:53.359Z,17.37
2018-12-29T01:24:20.650Z,18.80
2018-12-29T01:26:47.905Z,18.20
2018-12-29T01:29:15.195Z,18.07
2018-12-29T01:31:42.754Z,17.13
2018-12-29T01:34:10.043Z,18.40
2018-12-29T01:36:37.325Z,18.33
2018-12-29T01:39:05.066Z,17.13
2018-12-29T01:41:32.525Z,17.77
2018-12-29T01:43:59.771Z,19.10
2018-12-29T01:46:27.040Z,17.90
2018-12-29T01:48:54.443Z,18.33
2018-12-29T01:51:21.712Z,16.47
2018-12-29T01:53:48.956Z,18.87
2018-12-29T01:56:16.254Z,18.10
2018-12-29T01:58:43.627Z,17.13
2018-12-29T02:01:10.877Z,19.97
2018-12-29T02:03:38.139Z,17.23
2018-12-29T02:06:05.521Z,18.13
2018-12-29T02:08:33.015Z,17.00
2018-12-29T02:11:00.287Z,16.30
2018-12-29T02:13:27.566Z,17.43
2018-12-29T02:15:54.905Z,17.70
2018-12-29T02:18:22.246Z,16.87
2018-12-29T02:20:49.549Z,18.80
2018-12-29T02:23:16.909Z,18.57
2018-12-29T02:25:44.172Z,16.77
2018-12-29T02:28:11.430Z,18.90
2018-12-29T02:30:38.729Z,18.00
2018-12-29T02:33:06.332Z,17.33
2018-12-29T02:35:33.582Z,19.23
2018-12-29T02:38:01.098Z,15.83
2018-12-29T02:40:28.716Z,18.90
2018-12-29T02:42:56.248Z,19.33
2018-12-29T02:45:23.810Z,17.20
2018-12-29T02:47:51.164Z,17.47
2018-12-29T02:50:18.506Z,17.33
2018-12-29T02:52:45.794Z,16.83
2018-12-29T02:55:13.287Z,17.63
2018-12-29T02:57:40.858Z,17.33
2018-12-29T03:00:08.231Z,18.67
2018-12-29T03:02:35.745Z,16.10
2018-12-29T03:05:03.003Z,17.87
2018-12-29T03:07:30.352Z,16.50
2018-12-29T03:09:57.609Z,18.07
2018-12-29T03:12:24.896Z,17.27
2018-12-29T03:14:52.176Z,16.83
2018-12-29T03:17:19.428Z,16.90
2018-12-29T03:19:46.675Z,16.77
2018-12-29T03:22:14.074Z,18.17
2018-12-29T03:24:41.387Z,18.83
2018-12-29T03:27:09.057Z,16.83
2018-12-29T03:29:36.326Z,19.27
2018-12-29T03:32:03.857Z,17.70
2018-12-29T03:34:31.221Z,17.20
2018-12-29T03:36:58.594Z,19.37
2018-12-29T03:39:25.994Z,17.47
2018-12-29T03:41:53.361Z,18.20
2018-12-29T03:44:20.620Z,17.37
2018-12-29T03:46:48.421Z,16.47
2018-12-29T03:49:15.976Z,17.17
2018-12-29T03:51:43.319Z,16.73
2018-12-29T03:54:11.121Z,16.77
2018-12-29T03:56:38.374Z,17.07
2018-12-29T03:59:05.547Z,16.83
2018-12-29T04:01:32.929Z,18.37
2018-12-29T04:04:00.164Z,16.37
2018-12-29T04:06:27.412Z,17.07
2018-12-29T04:09:12.620Z,15.50
2018-12-29T04:11:39.875Z,18.50
2018-12-29T04:14:07.175Z,16.27
2018-12-29T04:16:34.544Z,15.97
2018-12-29T04:19:02.052Z,17.63
2018-12-29T04:21:29.333Z,15.93
2018-12-29T04:23:56.586Z,16.10
2018-12-29T04:26:23.949Z,15.73
2018-12-29T04:28:51.240Z,14.07
2018-12-29T04:31:18.604Z,15.27
2018-12-29T04:33:45.977Z,14.60
2018-12-29T04:36:13.390Z,15.43
2018-12-29T04:38:40.780Z,14.30
2018-12-29T04:41:08.047Z,15.33
2018-12-29T04:43:35.308Z,15.03
2018-12-29T04:46:05.437Z,17.60
2018-12-29T04:48:32.015Z,16.33
2018-12-29T04:50:59.507Z,15.83
2018-12-29T04:53:26.765Z,15.13
2018-12-29T04:55:54.065Z,16.13
2018-12-29T04:58:21.392Z,14.60
2018-12-29T05:00:48.632Z,13.90
2018-12-29T05:03:15.925Z,15.03
2018-12-29T05:05:43.554Z,14.70
2018-12-29T05:08:10.838Z,16.03
2018-12-29T05:10:38.193Z,15.57
2018-12-29T05:13:05.442Z,15.37
2018-12-29T05:15:32.721Z,16.23
2018-12-29T05:18:00.016Z,15.97
2018-12-29T05:20:27.274Z,16.40
2018-12-29T05:22:54.520Z,15.00
2018-12-29T05:25:21.927Z,15.30
2018-12-29T05:27:49.302Z,16.00
2018-12-29T05:30:17.167Z,14.90
2018-12-29T05:32:44.437Z,15.30
2018-12-29T05:35:11.714Z,15.57
2018-12-29T05:37:38.857Z,15.93
2018-12-29T05:40:06.138Z,14.23
2018-12-29T05:42:33.380Z,15.23
2018-12-29T05:45:01.146Z,15.60
2018-12-29T05:47:28.442Z,14.03
2018-12-29T05:49:55.725Z,14.10
2018-12-29T05:52:23.065Z,16.30
2018-12-29T05:54:50.348Z,15.00
2018-12-29T05:57:17.504Z,15.63
2018-12-29T05:59:45.060Z,14.57
2018-12-29T06:02:12.424Z,14.67
2018-12-29T06:04:39.675Z,14.37
2018-12-29T06:07:07.280Z,14.73
2018-12-29T06:09:34.548Z,15.67
2018-12-29T06:12:02.133Z,14.47
2018-12-29T06:14:29.984Z,14.67
2018-12-29T06:16:57.479Z,14.43
2018-12-29T06:19:24.844Z,14.53
2018-12-29T06:21:52.506Z,14.93
2018-12-29T06:24:19.744Z,14.53
2018-12-29T06:26:47.104Z,17.07
2018-12-29T06:29:14.454Z,15.57
2018-12-29T06:31:41.983Z,15.73
2018-12-29T06:34:09.522Z,16.87
2018-12-29T06:36:36.782Z,16.40
2018-12-29T06:39:05.444Z,15.53
2018-12-29T06:41:32.719Z,16.60
2018-12-29T06:44:00.239Z,17.23
2018-12-29T06:46:34.614Z,15.43
2018-12-29T06:48:56.587Z,14.17
2018-12-29T06:51:23.854Z,17.17
2018-12-29T06:53:51.113Z,16.33
2018-12-29T06:56:18.462Z,17.57
2018-12-29T06:58:46.087Z,17.57
2018-12-29T07:01:13.687Z,16.53
2018-12-29T07:03:40.990Z,17.87
2018-12-29T07:06:08.481Z,18.63
2018-12-29T07:08:35.763Z,17.40
2018-12-29T07:11:03.022Z,16.93
2018-12-29T07:13:30.376Z,15.70
2018-12-29T07:15:57.647Z,17.60
2018-12-29T07:18:24.909Z,17.10
2018-12-29T07:20:53.263Z,16.27
2018-12-29T07:23:20.563Z,17.60
2018-12-29T07:25:47.823Z,18.20
2018-12-29T07:28:15.257Z,17.97
2018-12-29T07:30:42.635Z,16.50
2018-12-29T07:33:09.924Z,18.27
2018-12-29T07:35:37.356Z,20.13
2018-12-29T07:38:04.876Z,18.10
2018-12-29T07:40:32.688Z,18.43
2018-12-29T07:43:00.206Z,17.40
2018-12-29T07:45:27.461Z,16.57
2018-12-29T07:47:54.729Z,16.10
2018-12-29T07:50:21.997Z,12.67
2018-12-29T07:52:49.265Z,17.67
2018-12-29T07:55:16.678Z,17.13
2018-12-29T07:57:44.081Z,19.13
2018-12-29T08:00:11.352Z,20.63
2018-12-29T08:02:38.604Z,19.27
2018-12-29T08:05:05.939Z,19.67
2018-12-29T08:07:33.626Z,18.20
2018-12-29T08:10:01.153Z,17.30
2018-12-29T08:12:28.735Z,18.43
2018-12-29T08:14:56.400Z,18.50
2018-12-29T08:17:23.789Z,17.97
2018-12-29T08:19:51.040Z,18.43
2018-12-29T08:22:18.368Z,18.13
2018-12-29T08:24:45.971Z,18.07
2018-12-29T08:27:13.547Z,16.63
2018-12-29T08:29:41.176Z,14.67
2018-12-29T08:32:08.546Z,16.93
2018-12-29T08:34:36.074Z,16.27
2018-12-29T08:37:03.604Z,17.63
2018-12-29T08:39:31.121Z,16.77
2018-12-29T08:41:58.366Z,19.53
2018-12-29T08:44:25.989Z,17.43
2018-12-29T08:46:53.252Z,15.17
2018-12-29T08:49:20.611Z,16.23
2018-12-29T08:51:48.142Z,16.53
2018-12-29T08:54:15.440Z,18.23
2018-12-29T08:56:42.806Z,17.33
2018-12-29T08:59:10.081Z,18.13
2018-12-29T09:01:37.354Z,18.93
2018-12-29T09:04:04.723Z,17.47
2018-12-29T09:06:32.063Z,16.23
2018-12-29T09:08:59.410Z,17.73
2018-12-29T09:11:26.692Z,18.13
2018-12-29T09:13:54.061Z,17.93
2018-12-29T09:16:21.311Z,18.30
2018-12-29T09:18:49.825Z,17.97
2018-12-29T09:21:17.380Z,20.63
2018-12-29T09:23:44.885Z,23.00
2018-12-29T09:26:12.286Z,20.40
2018-12-29T09:28:39.519Z,16.43
2018-12-29T09:31:06.789Z,16.63
2018-12-29T09:33:34.111Z,19.33
2018-12-29T09:36:01.622Z,17.33
2018-12-29T09:38:29.276Z,16.90
2018-12-29T09:40:56.528Z,13.93
2018-12-29T09:43:23.872Z,17.33
2018-12-29T09:45:51.146Z,18.40
2018-12-29T09:48:19.045Z,15.20
2018-12-29T09:50:46.441Z,15.33
2018-12-29T09:53:13.873Z,16.07
2018-12-29T09:56:01.042Z,13.77
2018-12-29T09:58:33.545Z,18.23
2018-12-29T10:01:03.812Z,16.90
2018-12-29T10:03:31.343Z,17.17
2018-12-29T10:06:00.466Z,16.07
2018-12-29T10:08:27.848Z,17.40
2018-12-29T10:10:55.507Z,14.53
2018-12-29T10:13:23.123Z,15.93
2018-12-29T10:15:50.383Z,16.00
2018-12-29T10:18:17.651Z,15.83
2018-12-29T10:20:44.934Z,16.93
2018-12-29T10:23:12.285Z,17.37
2018-12-29T10:25:39.597Z,22.50
2018-12-29T10:28:06.861Z,25.27
2018-12-29T10:30:34.262Z,18.33
2018-12-29T10:33:01.556Z,19.27
2018-12-29T10:35:28.838Z,16.83
2018-12-29T10:37:56.135Z,15.63
2018-12-29T10:40:23.416Z,16.00
2018-12-29T10:42:50.934Z,16.53
2018-12-29T10:45:18.191Z,19.13
2018-12-29T10:47:45.751Z,15.60
2018-12-29T10:50:13.424Z,16.87
2018-12-29T10:52:40.678Z,14.83
2018-12-29T10:55:08.053Z,15.97
2018-12-29T10:57:35.436Z,20.93
2018-12-29T11:00:08.467Z,16.60
2018-12-29T11:02:36.019Z,14.87
2018-12-29T11:05:08.070Z,18.23
2018-12-29T11:07:35.310Z,16.27
2018-12-29T11:10:02.692Z,17.67
2018-12-29T11:12:30.064Z,16.73
2018-12-29T11:14:57.316Z,12.33
2018-12-29T11:17:24.611Z,16.20
2018-12-29T11:19:51.990Z,15.77
2018-12-29T11:22:19.611Z,11.83
2018-12-29T11:24:46.989Z,16.40
2018-12-29T11:27:14.601Z,16.03
2018-12-29T11:29:41.914Z,10.77
2018-12-29T11:32:09.334Z,13.73
2018-12-29T11:34:36.668Z,13.97
2018-12-29T11:37:03.972Z,16.73
2018-12-29T11:39:31.368Z,17.77
2018-12-29T11:41:58.879Z,17.47
2018-12-29T11:44:26.270Z,15.10
2018-12-29T11:46:53.525Z,18.07
2018-12-29T11:49:20.773Z,18.63
2018-12-29T11:51:48.182Z,17.83
2018-12-29T11:54:16.072Z,16.53
2018-12-29T11:56:43.451Z,15.20
2018-12-29T11:59:10.848Z,21.97
2018-12-29T12:01:38.225Z,18.70
2018-12-29T12:04:05.591Z,19.47
2018-12-29T12:06:32.979Z,18.83
2018-12-29T12:09:00.334Z,16.97
2018-12-29T12:11:28.182Z,15.07
2018-12-29T12:13:55.518Z,18.03
2018-12-29T12:16:22.911Z,16.60
2018-12-29T12:18:50.310Z,17.33
2018-12-29T12:21:17.652Z,15.43
2018-12-29T12:23:45.160Z,14.23
2018-12-29T12:26:12.545Z,10.83
2018-12-29T12:28:39.891Z,19.93
2018-12-29T12:31:07.283Z,14.37
2018-12-29T12:33:34.676Z,19.17
2018-12-29T12:36:02.015Z,18.00
2018-12-29T12:38:29.887Z,18.77
2018-12-29T12:40:57.280Z,16.37
2018-12-29T12:43:24.709Z,17.13
2018-12-29T12:45:52.373Z,17.93
2018-12-29T12:48:19.751Z,17.60
2018-12-29T12:50:47.388Z,16.53
2018-12-29T12:53:14.858Z,16.73
2018-12-29T12:55:43.070Z,17.97
2018-12-29T12:58:10.859Z,17.50
2018-12-29T13:00:38.533Z,17.27
2018-12-29T13:03:06.173Z,15.53
2018-12-29T13:05:33.536Z,17.73
2018-12-29T13:08:01.385Z,13.60
2018-12-29T13:10:28.738Z,16.77
2018-12-29T13:12:56.103Z,13.70
2018-12-29T13:15:23.704Z,15.07
2018-12-29T13:17:51.108Z,17.30
2018-12-29T13:20:18.733Z,16.23
2018-12-29T13:22:46.669Z,16.00
2018-12-29T13:25:14.124Z,15.83
2018-12-29T13:27:41.506Z,16.20
2018-12-29T13:30:08.864Z,14.60
2018-12-29T13:32:36.155Z,16.10
2018-12-29T13:35:03.842Z,17.30
2018-12-29T13:37:31.184Z,16.00
2018-12-29T13:39:58.550Z,16.13
2018-12-29T13:42:26.182Z,16.37
2018-12-29T13:44:53.796Z,16.03
2018-12-29T13:47:21.163Z,18.20
2018-12-29T13:49:48.545Z,18.47
2018-12-29T13:52:16.176Z,18.03
2018-12-29T13:54:43.559Z,17.07
2018-12-29T13:57:10.915Z,16.97
2018-12-29T13:59:38.534Z,17.33
2018-12-29T14:02:06.114Z,17.13
2018-12-29T14:04:33.662Z,20.93
2018-12-29T14:07:01.011Z,18.37
2018-12-29T14:09:28.650Z,17.33
2018-12-29T14:11:56.071Z,17.60
2018-12-29T14:14:23.718Z,19.57
2018-12-29T14:16:51.367Z,18.00
2018-12-29T14:19:18.709Z,15.43
2018-12-29T14:21:46.348Z,19.63
2018-12-29T14:24:13.840Z,21.47
2018-12-29T14:26:41.205Z,20.80
2018-12-29T14:29:08.564Z,20.93
2018-12-29T14:31:35.961Z,24.67
2018-12-29T14:34:03.688Z,21.53
2018-12-29T14:36:31.049Z,21.63
2018-12-29T14:38:58.429Z,20.63
2018-12-29T14:41:25.779Z,20.77
2018-12-29T14:43:53.145Z,18.50
2018-12-29T14:46:20.661Z,24.60
2018-12-29T14:48:48.044Z,23.97
2018-12-29T14:51:15.681Z,26.30
2018-12-29T14:53:43.247Z,25.40
2018-12-29T14:56:10.882Z,29.30
2018-12-29T14:58:38.277Z,26.50
2018-12-29T15:01:06.163Z,30.40
2018-12-29T15:03:33.522Z,25.17
2018-12-29T15:06:00.889Z,27.70
2018-12-29T15:08:28.808Z,24.73
2018-12-29T15:10:56.167Z,26.43
2018-12-29T15:13:23.753Z,26.07
2018-12-29T15:15:51.367Z,28.17
2018-12-29T15:18:18.940Z,18.97
2018-12-29T15:20:46.644Z,25.93
2018-12-29T15:23:14.420Z,31.07
2018-12-29T15:25:42.061Z,29.83
2018-12-29T15:28:09.347Z,29.50
2018-12-29T15:30:37.129Z,30.07
2018-12-29T15:33:04.465Z,26.93
2018-12-29T15:35:31.873Z,27.17
2018-12-29T15:37:59.562Z,27.97
2018-12-29T15:40:26.911Z,27.73
2018-12-29T15:42:54.287Z,28.67
2018-12-29T15:45:22.062Z,29.93
2018-12-29T15:47:49.448Z,26.47
2018-12-29T15:50:17.089Z,28.77
2018-12-29T15:52:44.509Z,27.27
2018-12-29T15:55:12.020Z,31.03
2018-12-29T15:57:40.154Z,33.10
2018-12-29T16:00:07.642Z,29.77
2018-12-29T16:02:35.136Z,27.93
2018-12-29T16:05:03.090Z,30.03
2018-12-29T16:07:30.693Z,29.07
2018-12-29T16:09:58.084Z,28.53
2018-12-29T16:12:25.419Z,28.93
2018-12-29T16:14:52.790Z,27.20
2018-12-29T16:17:20.402Z,29.07
2018-12-29T16:19:48.064Z,29.13
2018-12-29T16:22:15.901Z,30.33
2018-12-29T16:24:43.226Z,26.93
2018-12-29T16:27:10.924Z,28.77
2018-12-29T16:29:38.319Z,29.77
2018-12-29T16:32:05.688Z,27.93
2018-12-29T16:34:33.116Z,27.80
2018-12-29T16:37:00.582Z,25.87
2018-12-29T16:39:28.428Z,29.87
2018-12-29T16:41:55.795Z,28.90
2018-12-29T16:44:23.176Z,27.83
2018-12-29T16:46:50.859Z,27.53
2018-12-29T16:49:18.210Z,26.80
2018-12-29T16:51:45.608Z,27.30
2018-12-29T16:54:12.971Z,33.07
2018-12-29T16:56:40.314Z,28.10
2018-12-29T16:59:07.706Z,26.37
2018-12-29T17:01:34.990Z,26.70
2018-12-29T17:04:02.336Z,26.73
2018-12-29T17:06:30.530Z,26.87
2018-12-29T17:08:57.899Z,27.43
2018-12-29T17:11:25.264Z,26.70
2018-12-29T17:13:52.603Z,27.10
2018-12-29T17:16:20.227Z,26.47
2018-12-29T17:18:47.592Z,25.30
2018-12-29T17:21:14.950Z,23.30
2018-12-29T17:23:42.302Z,24.77
2018-12-29T17:26:09.664Z,26.67
2018-12-29T17:28:37.019Z,29.17
2018-12-29T17:31:04.373Z,25.30
2018-12-29T17:33:32.299Z,25.63
2018-12-29T17:35:59.935Z,26.20
2018-12-29T17:38:27.322Z,23.60
2018-12-29T17:40:54.944Z,28.07
2018-12-29T17:43:22.561Z,28.80
2018-12-29T17:45:50.505Z,25.80
2018-12-29T17:48:17.844Z,24.17
2018-12-29T17:50:45.212Z,24.80
2018-12-29T17:53:12.590Z,23.53
2018-12-29T17:55:39.960Z,24.93
2018-12-29T17:58:07.309Z,23.03
2018-12-29T18:00:34.691Z,24.43
2018-12-29T18:03:02.304Z,23.00
2018-12-29T18:05:29.956Z,24.53
2018-12-29T18:07:57.313Z,23.17
2018-12-29T18:10:25.005Z,22.10
2018-12-29T18:12:52.375Z,23.90
2018-12-29T18:15:19.741Z,23.03
2018-12-29T18:17:47.305Z,23.50
2018-12-29T18:20:14.654Z,23.60
2018-12-29T18:22:42.295Z,23.50
2018-12-29T18:25:09.657Z,21.13
2018-12-29T18:27:37.315Z,21.10
2018-12-29T18:30:05.245Z,22.13
2018-12-29T18:32:32.613Z,21.27
2018-12-29T18:35:00.262Z,22.13
2018-12-29T18:37:27.644Z,21.47
2018-12-29T18:39:55.108Z,22.40
2018-12-29T18:42:22.472Z,19.37
2018-12-29T18:44:50.952Z,20.30
2018-12-29T18:47:18.365Z,20.00
2018-12-29T18:49:45.773Z,20.53
2018-12-29T18:52:13.117Z,18.97
2018-12-29T18:54:40.533Z,18.77
2018-12-29T18:57:07.998Z,17.77
2018-12-29T18:59:35.378Z,17.40
2018-12-29T19:02:02.826Z,16.07
2018-12-29T19:04:30.467Z,15.17
2018-12-29T19:06:57.863Z,14.30
2018-12-29T19:09:25.252Z,14.60
2018-12-29T19:11:53.139Z,12.60
2018-12-29T19:14:20.849Z,10.53
2018-12-29T19:16:48.187Z,10.07
2018-12-29T19:19:15.555Z,8.63
2018-12-29T19:21:42.929Z,8.63
2018-12-29T19:24:10.583Z,7.80
2018-12-29T19:26:38.236Z,5.90
2018-12-29T19:29:05.618Z,5.13
2018-12-29T19:31:33.195Z,5.23
2018-12-29T19:34:00.794Z,5.10
2018-12-29T19:36:29.663Z,5.70
2018-12-29T19:38:57.401Z,4.30
2018-12-29T19:41:24.947Z,3.73
2018-12-29T19:43:52.855Z,4.23
2018-12-29T19:46:20.703Z,3.97
2018-12-29T19:48:48.223Z,4.40
2018-12-29T19:51:15.769Z,3.53
2018-12-29T19:53:43.657Z,3.30
2018-12-29T19:56:11.971Z,3.23
2018-12-29T19:58:39.392Z,3.07
2018-12-29T20:01:06.777Z,3.83
2018-12-29T20:03:34.128Z,3.00
2018-12-29T20:06:01.490Z,2.53
2018-12-29T20:08:29.415Z,2.80
2018-12-29T20:10:57.040Z,2.10
2018-12-29T20:13:24.706Z,2.50
2018-12-29T20:15:52.070Z,2.53
2018-12-29T20:18:19.652Z,2.30
2018-12-29T20:20:47.030Z,2.13
2018-12-29T20:23:15.138Z,1.87
2018-12-29T20:25:43.058Z,2.40
2018-12-29T20:28:10.720Z,2.50
2018-12-29T20:30:38.123Z,1.93
2018-12-29T20:33:05.809Z,2.67
2018-12-29T20:35:33.414Z,1.67
2018-12-29T20:38:01.052Z,2.23
2018-12-29T20:40:28.420Z,2.20
2018-12-29T20:42:56.076Z,2.50
2018-12-29T20:45:23.669Z,3.13
2018-12-29T20:47:51.014Z,2.10
2018-12-29T20:50:18.456Z,2.23
2018-12-29T20:52:45.828Z,2.40
2018-12-29T20:55:13.458Z,2.60
2018-12-29T20:57:41.103Z,2.80
2018-12-29T21:00:08.912Z,2.20
2018-12-29T21:02:36.265Z,2.47
2018-12-29T21:05:03.808Z,2.20
2018-12-29T21:07:31.433Z,2.20
2018-12-29T21:09:58.818Z,2.13
2018-12-29T21:12:26.214Z,2.17
2018-12-29T21:14:53.545Z,1.90
2018-12-29T21:17:20.937Z,2.20
2018-12-29T21:19:48.296Z,2.20
2018-12-29T21:22:15.914Z,1.87
2018-12-29T21:24:43.261Z,1.77
2018-12-29T21:27:10.631Z,2.80
2018-12-29T21:29:38.030Z,2.00
2018-12-29T21:32:05.663Z,1.80
2018-12-29T21:34:33.047Z,2.43
2018-12-29T21:37:00.622Z,2.00
2018-12-29T21:39:28.237Z,2.27
2018-12-29T21:41:55.895Z,2.63
2018-12-29T21:44:23.520Z,2.23
2018-12-29T21:46:50.920Z,1.87
2018-12-29T21:49:18.295Z,1.73
2018-12-29T21:51:46.055Z,2.10
2018-12-29T21:54:13.444Z,2.87
2018-12-29T21:56:41.059Z,2.97
2018-12-29T21:59:08.412Z,2.20
2018-12-29T22:01:36.077Z,2.00
2018-12-29T22:04:03.539Z,3.80
2018-12-29T22:06:31.404Z,3.00
2018-12-29T22:08:59.052Z,2.70
2018-12-29T22:11:26.409Z,2.20
2018-12-29T22:13:54.068Z,1.93
2018-12-29T22:16:21.856Z,2.67
2018-12-29T22:18:49.245Z,2.40
2018-12-29T22:21:16.930Z,2.40
2018-12-29T22:23:44.334Z,2.47
2018-12-29T22:26:12.303Z,2.00
2018-12-29T22:28:39.980Z,1.57
2018-12-29T22:31:07.359Z,2.10
2018-12-29T22:33:34.737Z,1.47
2018-12-29T22:36:02.680Z,2.00
2018-12-29T22:38:30.030Z,2.70
2018-12-29T22:40:57.713Z,2.00
2018-12-29T22:43:25.095Z,2.50
2018-12-29T22:45:52.751Z,2.40
2018-12-29T22:48:20.404Z,3.03
2018-12-29T22:50:47.965Z,2.00
2018-12-29T22:53:15.621Z,2.50
2018-12-29T22:55:43.048Z,3.57
2018-12-29T22:58:10.437Z,2.37
2018-12-29T23:00:42.647Z,2.93
2018-12-29T23:03:10.074Z,3.20
2018-12-29T23:05:37.475Z,2.23
2018-12-29T23:08:05.126Z,2.33
2018-12-29T23:10:32.503Z,1.97
2018-12-29T23:13:00.178Z,3.60
2018-12-29T23:15:27.554Z,1.67
2018-12-29T23:17:54.933Z,2.80
2018-12-29T23:20:22.311Z,2.27
2018-12-29T23:22:49.939Z,2.27
2018-12-29T23:25:17.302Z,1.80
2018-12-29T23:27:44.693Z,2.87
2018-12-29T23:30:12.050Z,3.03
2018-12-29T23:32:39.621Z,2.83
2018-12-29T23:35:07.013Z,1.97
2018-12-29T23:37:34.394Z,2.43
2018-12-29T23:40:01.988Z,2.50
2018-12-29T23:42:29.341Z,1.67
2018-12-29T23:44:57.067Z,2.03
2018-12-29T23:47:24.733Z,2.27
2018-12-29T23:49:52.198Z,1.77
2018-12-29T23:52:19.593Z,2.23
2018-12-29T23:54:46.967Z,2.47
2018-12-29T23:57:14.749Z,1.97
2018-12-29T23:59:42.135Z,2.47
